Etusivu
METAR-TAF:

METAR-TAF

Lentoasemat :

Vieux-Fort, Saint Lucia

Leveyspiiri: 13-45N, Pituuspiiri: 060-57W, korkeus merenpinnasta: 3 m

Tämänhetkinen sää

Tämä raportti tehtiin 1 tunti ja 0 minuuttia sitten, kello 17.00 UTC
Tuuli 19 kn idästä/kaakosta
Lämpötila 31°C
Kosteus 66%
Ilmanpaine 1014 hPa
Näkyvyys 10 km tai enemmän
Muutamia pilviä 2700 ft:n korkeudessa

METAR: TLPL 051700Z 11019KT 9999 FEW027 31/24 Q1014 NOSIG

Aika: 14:00 (18:00 UTC)

Sääennuste

Tämä raportti tehtiin 1 tunti ja 0 minuuttia sitten, kello 17.00 UTC
Ennuste voimassa 05. päivästä klo 18 UTC - 06. päivään klo 18 UTC
Tuuli 20 kn idästä
Näkyvyys 10 km tai enemmän
Hajanaisia pilviä 2600 ft:n korkeudessa

TAF: TLPL 051700Z 0518/0618 09020KT 9999 SCT026

Säähavainnot ja -ennusteet yli 4000 lentoasemalta (METAR- ja TAF-raportit).

Käytössä olevat sääasemat on merkitty karttaan keltaisilla ja punaisilla pisteillä.

Aseta hiiri pisteen päälle nähdäksesi sääaseman nimen.

Klikkaa sitten nähdäksesi säähavainnot ja -ennusteet.

Kartan vaihtaminen: klikkaa mustalla rastilla varustettuja vihreitä pisteitä, niin voit zoomata sisään; viivalla varustettua vihreää pistettä, niin voit zoomata ulos tai vihreitä nuolia, niin pääset viereisille kartoille.


METAR-TAF: